Paso Robles, California
Current Conditions -  °F | °C
As of 7:53 PM on Thursday 27 Nov 2014 (Local Time) from KPRB Reporting Station
Clear Clear  
Wind Chill: 11°   Ceiling: Unl
Heat Index: 11°   Visibility: 10mi
Dew Point:   Wind: 3mph
Humidity: 52%   Direction: 140°SE
Pressure: 30.07"   Gusts: NA
Location:  35.67°N, 120.63°W
Report Text: KPRB 280353Z AUTO 14003KT 10SM CLR 11/01 A3007 RMK AO2 SLP182 T01060011 TSNO
Loading
Personal Weather Stations






























Interactive Weather Map New forecast layout! Learn more

10-Day Weather Forecast

Advertisements
Track Severe Weather on mobile